Fairmont, WV

12:05 PM EST on March 02, 2015 (GMT -0500)
Benedum | Change Station
CLOSE
Current Station
Airport
Location: Clarksburg,
Elevation: 1204 ft
Nearby Weather Stations

Elev 1204 ft 39.30 °N, 80.23 °W | Updated 12 minutes ago

Overcast
Overcast
31 °F
Feels Like 22 °F
N
10
Wind Variable Wind from WNW

Today
High -- | Low -- °F
--% Chance of Precip.
Yesterday
High -- | Low -- °F
Precip. -- in
6:52 AM 6:13 PM
Waxing Gibbous, 92% visible
Pressure 30.44 in
Visibility 10.0 miles
Clouds Scattered Clouds 3200 ft
Windchill 22 °F
Dew Point 20 °F
Humidity 64%
Rainfall 0.07 in
Snow Depth Not available.
UV 5 out of 12
Pollen 1.30 out of 12
Air Quality Not available.
Flu Activity Not available.
METAR KCKB 021653Z 29009KT 10SM SCT032 M01/M07 A3042 RMK AO2 SLP307 T10061067

More Conditions Fewer Conditions

Pressure 30.44 in
Visibility 10.0 miles
Clouds Scattered Clouds 3200 ft
Windchill 22 °F
Dew Point 20 °F
Humidity 64%
Rainfall 0.07 in
Snow Depth Not available.
UV 5 out of 12
Pollen 1.30 out of 12
Air Quality Not available.
Flu Activity Not available.
METAR KCKB 021653Z 29009KT 10SM SCT032 M01/M07 A3042 RMK AO2 SLP307 T10061067

More Conditions Fewer Conditions

10-Day Weather Forecast

Almanac

Astronomy

Mar. 02, 2015 Rise Set
Actual Time
Civil Twilight
Nautical Twilight
Astronomical Twilight
Moon
Length of Visible Light
Length of Day
Tomorrow will be .
, % of the Moon is Illuminated

Today's Extremes

State Highs State Lows

Community

WunderPhotos

Upload Photos

1,801,852 photos uploaded!

WunderBlogs® & News

Nearby

Air Quality

  Air Quality AQ Index Pollutant
Not available.

Snow Depth

Station Depth Elevation

Earthquake Activity

City Distance Mag. Time & Date
Minimum magnitude displayed is 2.5.

Coastal Water Temperatures

Place Temperature

Nearby Weather Stations